Bookmark and Share
Track history (hours):
 

Tenko Maru

Last reported at 2014-Apr-09 18:26 UTC. Time now 2014-Apr-18 00:24 UTC.
Position S 32°01' W 071°55'.
Warning: this ship's position is 8 days out of date.

Length 190 m; draft 8.8 m.

Type: Cargo ship. MMSI: 370715000.

NotesDate/timePositionNaut miles runAvg speedWind from/ knotsBaromVisibWave heightAir tempDewpointWater temp
2014-Apr-09 18:26S 32°01' W 071°55'1813.1
2014-Apr-09 17:06S 32°18' W 071°48'813.1
2014-Apr-09 16:32S 32°25' W 071°45'1313.0
2014-Apr-09 15:33S 32°36' W 071°40'1110.7
2014-Apr-09 14:33S 32°45' W 071°32'1 1.2
2014-Apr-09 13:31S 32°45' W 071°30'0 0.1
2014-Apr-09 12:31S 32°45' W 071°30'1 0.7
2014-Apr-09 11:31S 32°45' W 071°29'0 0.0
2014-Apr-08 22:28S 32°45' W 071°29'0 0.0
2014-Apr-08 21:28S 32°45' W 071°29'0 0.0
2014-Apr-08 20:28S 32°45' W 071°29'0 0.0
2014-Apr-08 19:28S 32°45' W 071°29'0 0.0
2014-Apr-08 18:28S 32°45' W 071°29'0 0.0
2014-Apr-08 17:16S 32°45' W 071°29'0 0.0
2014-Apr-08 16:28S 32°45' W 071°29'0 0.0
2014-Apr-08 15:28S 32°45' W 071°29'0 0.0
2014-Apr-08 14:25S 32°45' W 071°29'0 0.0
2014-Apr-08 13:28S 32°45' W 071°29'0 0.0
2014-Apr-08 12:28S 32°45' W 071°29'0 0.0
2014-Apr-08 11:28S 32°45' W 071°29'1 0.1
2014-Apr-08 03:05S 32°45' W 071°30'1 0.3
2014-Apr-07 23:14S 32°45' W 071°32'3 3.9
2014-Apr-07 22:33S 32°45' W 071°35'10 9.5
2014-Apr-07 21:33S 32°38' W 071°42'  

Dump ship's entire track history

sailing weather and tide predictions

Tenko Maru — HPRN — position and weather